createdAt,value
2023-04-18T00:00:36.761Z,6.94
2023-04-18T00:01:39.752Z,7.18
2023-04-18T00:03:59.615Z,7.89
2023-04-18T00:05:03.006Z,8.11
2023-04-18T00:06:06.083Z,10.05
2023-04-18T00:07:09.049Z,9.27
2023-04-18T00:08:12.128Z,10.14
2023-04-18T00:09:15.148Z,7.73
2023-04-18T00:10:18.192Z,6.40
2023-04-18T00:11:21.273Z,7.97
2023-04-18T00:13:40.447Z,10.40
2023-04-18T00:14:43.513Z,9.05
2023-04-18T00:15:46.417Z,10.33
2023-04-18T00:16:49.404Z,6.16
2023-04-18T00:17:52.514Z,8.00
2023-04-18T00:18:55.526Z,8.11
2023-04-18T00:19:58.704Z,8.53
2023-04-18T00:21:01.523Z,8.11
2023-04-18T00:23:20.233Z,6.05
2023-04-18T00:24:22.897Z,7.55
2023-04-18T00:25:25.774Z,7.42
2023-04-18T00:26:28.542Z,5.35
2023-04-18T00:28:39.007Z,7.67
2023-04-18T00:29:44.973Z,6.62
2023-04-18T00:30:48.059Z,8.03
2023-04-18T00:31:50.816Z,6.23
2023-04-18T00:32:53.625Z,7.32
2023-04-18T00:35:12.641Z,7.55
2023-04-18T00:36:15.718Z,7.33
2023-04-18T00:37:18.705Z,7.15
2023-04-18T00:38:21.769Z,8.61
2023-04-18T00:39:24.873Z,6.70
2023-04-18T00:40:28.154Z,7.49
2023-04-18T00:41:31.220Z,6.45
2023-04-18T00:42:33.884Z,10.30
2023-04-18T00:44:47.527Z,5.91
2023-04-18T00:45:50.518Z,6.15
2023-04-18T00:48:09.966Z,6.60
2023-04-18T00:49:12.952Z,3.76
2023-04-18T00:50:16.131Z,4.55
2023-04-18T00:51:19.208Z,5.87
2023-04-18T00:52:22.285Z,6.57
2023-04-18T00:53:25.368Z,6.56
2023-04-18T00:54:28.344Z,5.31
2023-04-18T00:55:31.421Z,6.05
2023-04-18T00:56:34.400Z,7.65
2023-04-18T00:57:37.378Z,8.86
2023-04-18T00:58:40.470Z,14.82
2023-04-18T00:59:43.458Z,7.14
2023-04-18T01:00:46.510Z,7.15
2023-04-18T01:03:05.729Z,6.93
2023-04-18T01:04:08.587Z,9.03
2023-04-18T01:05:11.550Z,8.50
2023-04-18T01:06:14.505Z,7.70
2023-04-18T01:07:17.893Z,5.62
2023-04-18T01:08:20.965Z,6.88
2023-04-18T01:09:23.987Z,8.52
2023-04-18T01:10:26.930Z,8.91
2023-04-18T01:12:37.892Z,6.72
2023-04-18T01:14:57.386Z,8.92
2023-04-18T01:16:00.311Z,8.08
2023-04-18T01:17:03.012Z,9.65
2023-04-18T01:18:06.093Z,7.49
2023-04-18T01:19:09.277Z,5.99
2023-04-18T01:20:12.355Z,6.55
2023-04-18T01:21:15.439Z,9.32
2023-04-18T01:22:18.514Z,11.30
2023-04-18T01:23:21.599Z,10.01
2023-04-18T01:24:24.594Z,9.76
2023-04-18T01:26:43.755Z,6.20
2023-04-18T01:27:46.710Z,7.63
2023-04-18T01:28:49.687Z,8.35
2023-04-18T01:29:52.781Z,11.28
2023-04-18T01:30:55.881Z,9.79
2023-04-18T01:32:02.217Z,9.07
2023-04-18T01:33:04.907Z,7.90
2023-04-18T01:34:07.713Z,6.82
2023-04-18T01:35:10.733Z,11.98
2023-04-18T01:37:21.600Z,8.88
2023-04-18T01:39:40.660Z,7.91
2023-04-18T01:40:43.736Z,8.13
2023-04-18T01:41:46.729Z,10.12
2023-04-18T01:42:49.834Z,7.88
2023-04-18T01:43:52.569Z,8.23
2023-04-18T01:44:55.544Z,7.06
2023-04-18T01:45:58.524Z,6.42
2023-04-18T01:47:01.270Z,6.87
2023-04-18T01:49:17.696Z,6.81
2023-04-18T01:50:20.769Z,8.21
2023-04-18T01:51:23.887Z,8.74
2023-04-18T01:52:26.828Z,8.81
2023-04-18T01:53:29.809Z,8.25
2023-04-18T01:54:32.574Z,8.18
2023-04-18T01:56:51.449Z,10.45
2023-04-18T01:57:54.410Z,8.15
2023-04-18T01:58:57.393Z,7.62
2023-04-18T02:00:00.185Z,7.25
2023-04-18T02:01:03.050Z,8.49
2023-04-18T02:02:05.940Z,8.39
2023-04-18T02:03:09.144Z,8.29
2023-04-18T02:05:28.575Z,6.94
2023-04-18T02:06:31.432Z,7.88
2023-04-18T02:07:34.308Z,8.15
2023-04-18T02:09:45.178Z,9.09
2023-04-18T02:10:48.156Z,8.11
2023-04-18T02:13:07.524Z,6.91
2023-04-18T02:14:10.663Z,9.41
2023-04-18T02:15:13.683Z,7.22
2023-04-18T02:16:16.578Z,8.84
2023-04-18T02:17:19.430Z,9.91
2023-04-18T02:18:22.312Z,10.10
2023-04-18T02:19:27.404Z,6.79
2023-04-18T02:20:30.325Z,9.85
2023-04-18T02:22:49.376Z,9.86
2023-04-18T02:23:52.166Z,7.67
2023-04-18T02:24:55.019Z,8.33
2023-04-18T02:25:57.789Z,8.07
2023-04-18T02:27:00.565Z,7.71
2023-04-18T02:28:03.359Z,8.54
2023-04-18T02:29:06.106Z,7.61
2023-04-18T02:31:25.197Z,8.27
2023-04-18T02:32:28.192Z,9.02
2023-04-18T02:33:31.226Z,9.53
2023-04-18T02:34:34.008Z,10.74
2023-04-18T02:35:36.769Z,7.09
2023-04-18T02:36:39.642Z,7.52
2023-04-18T02:37:42.419Z,7.53
2023-04-18T02:38:45.011Z,8.04
2023-04-18T02:39:48.081Z,7.69
2023-04-18T02:42:06.921Z,8.56
2023-04-18T02:43:09.702Z,8.38
2023-04-18T02:44:12.985Z,8.42
2023-04-18T02:45:16.066Z,9.64
2023-04-18T02:46:18.953Z,8.61
2023-04-18T02:47:22.115Z,7.55
2023-04-18T02:48:25.105Z,7.12
2023-04-18T02:49:27.866Z,6.23
2023-04-18T02:51:38.422Z,7.81
2023-04-18T02:52:41.110Z,8.63
2023-04-18T02:53:44.075Z,8.46
2023-04-18T02:56:03.435Z,8.10
2023-04-18T02:57:06.416Z,8.85
2023-04-18T02:58:09.505Z,10.23
2023-04-18T02:59:12.266Z,9.96
2023-04-18T03:00:15.345Z,8.91
2023-04-18T03:01:18.505Z,7.50
2023-04-18T03:02:21.488Z,8.12
2023-04-18T03:03:24.622Z,7.36
2023-04-18T03:05:43.761Z,8.67
2023-04-18T03:06:46.416Z,8.35
2023-04-18T03:07:49.196Z,9.75
2023-04-18T03:08:52.180Z,7.99
2023-04-18T03:09:55.044Z,6.15
2023-04-18T03:10:57.832Z,10.66
2023-04-18T03:12:00.590Z,9.19
2023-04-18T03:13:03.260Z,8.35
2023-04-18T03:14:06.336Z,9.48
2023-04-18T03:16:19.720Z,9.95
2023-04-18T03:17:22.785Z,8.27
2023-04-18T03:18:25.518Z,9.82
2023-04-18T03:19:28.289Z,9.14
2023-04-18T03:20:31.262Z,7.87
2023-04-18T03:22:42.439Z,8.27
2023-04-18T03:25:01.234Z,11.68
2023-04-18T03:26:04.375Z,11.84
2023-04-18T03:27:07.366Z,10.13
2023-04-18T03:28:10.442Z,9.50
2023-04-18T03:29:13.439Z,8.29
2023-04-18T03:30:16.185Z,11.18
2023-04-18T03:31:19.168Z,9.55
2023-04-18T03:32:22.175Z,8.23
2023-04-18T03:34:41.114Z,8.68
2023-04-18T03:35:43.768Z,10.62
2023-04-18T03:36:48.018Z,8.03
2023-04-18T03:37:50.754Z,11.75
2023-04-18T03:38:53.517Z,11.37
2023-04-18T03:39:56.188Z,8.64
2023-04-18T03:40:59.056Z,9.37
2023-04-18T03:42:01.837Z,11.08
2023-04-18T03:43:04.501Z,11.12
2023-04-18T03:45:23.578Z,10.04
2023-04-18T03:46:26.703Z,9.69
2023-04-18T03:47:29.630Z,8.87
2023-04-18T03:48:32.599Z,8.44
2023-04-18T03:49:35.369Z,9.39
2023-04-18T03:50:38.038Z,8.37
2023-04-18T03:51:40.912Z,8.50
2023-04-18T03:52:49.931Z,7.98
2023-04-18T03:53:52.718Z,9.62
2023-04-18T03:54:55.585Z,8.10
2023-04-18T03:55:58.765Z,10.00
2023-04-18T03:57:01.655Z,8.25
2023-04-18T03:58:04.592Z,8.90
2023-04-18T04:00:23.173Z,7.93
2023-04-18T04:01:25.831Z,9.12
2023-04-18T04:02:28.605Z,11.36
2023-04-18T04:03:31.393Z,9.33
2023-04-18T04:05:50.861Z,6.37
2023-04-18T04:06:53.725Z,8.58
2023-04-18T04:07:56.522Z,8.95
2023-04-18T04:08:59.276Z,7.32
2023-04-18T04:10:01.961Z,10.23
2023-04-18T04:11:04.921Z,8.83
2023-04-18T04:12:07.902Z,7.69
2023-04-18T04:14:18.865Z,9.19
2023-04-18T04:15:21.637Z,6.94
2023-04-18T04:16:24.539Z,7.56
2023-04-18T04:17:27.541Z,7.01
2023-04-18T04:19:38.467Z,6.96
2023-04-18T04:21:57.520Z,7.26
2023-04-18T04:23:00.299Z,8.59
2023-04-18T04:24:02.967Z,8.36
2023-04-18T04:25:06.054Z,7.24
2023-04-18T04:26:08.825Z,9.25
2023-04-18T04:27:12.307Z,8.71
2023-04-18T04:28:14.979Z,7.14
2023-04-18T04:29:33.109Z,7.94
2023-04-18T04:30:35.674Z,7.65
2023-04-18T04:31:38.365Z,8.54
2023-04-18T04:32:41.062Z,6.75
2023-04-18T04:33:43.794Z,7.72
2023-04-18T04:34:46.385Z,6.39
2023-04-18T04:35:49.132Z,9.43
2023-04-18T04:37:59.994Z,8.38
2023-04-18T04:40:13.229Z,7.88
2023-04-18T04:41:15.991Z,7.52
2023-04-18T04:43:34.861Z,7.90
2023-04-18T04:44:37.752Z,9.21
2023-04-18T04:45:40.734Z,7.95
2023-04-18T04:46:43.785Z,9.32
2023-04-18T04:47:47.015Z,7.62
2023-04-18T04:48:49.745Z,8.52
2023-04-18T04:49:52.421Z,7.71
2023-04-18T04:50:55.079Z,10.04
2023-04-18T04:51:59.547Z,7.61
2023-04-18T04:53:02.561Z,9.36
2023-04-18T04:55:21.443Z,8.51
2023-04-18T04:56:25.319Z,8.98
2023-04-18T04:57:27.997Z,8.74
2023-04-18T04:58:32.726Z,9.48
2023-04-18T04:59:35.600Z,8.84
2023-04-18T05:00:38.457Z,7.13
2023-04-18T05:01:41.149Z,9.03
2023-04-18T05:02:44.070Z,11.28
2023-04-18T05:03:47.574Z,7.98
2023-04-18T05:05:58.561Z,7.65
2023-04-18T05:07:01.248Z,9.66
2023-04-18T05:09:17.029Z,8.65
2023-04-18T05:10:20.097Z,9.50
2023-04-18T05:11:23.171Z,9.12
2023-04-18T05:12:25.740Z,9.58
2023-04-18T05:13:28.417Z,7.62
2023-04-18T05:15:38.952Z,8.01
2023-04-18T05:17:58.419Z,8.41
2023-04-18T05:19:01.466Z,7.99
2023-04-18T05:20:12.593Z,8.04
2023-04-18T05:21:15.365Z,5.35
2023-04-18T05:22:18.034Z,8.78
2023-04-18T05:23:20.603Z,7.03
2023-04-18T05:24:23.374Z,10.28
2023-04-18T05:25:25.960Z,6.86
2023-04-18T05:26:28.607Z,7.11
2023-04-18T05:27:31.288Z,7.58
2023-04-18T05:28:33.951Z,6.89
2023-04-18T05:29:36.723Z,6.86
2023-04-18T05:30:39.475Z,7.89
2023-04-18T05:31:42.286Z,5.80
2023-04-18T05:32:44.899Z,8.12
2023-04-18T05:33:47.712Z,8.63
2023-04-18T05:34:50.378Z,9.00
2023-04-18T05:35:53.358Z,7.79
2023-04-18T05:36:56.232Z,10.42
2023-04-18T05:37:59.012Z,9.55
2023-04-18T05:39:01.983Z,6.45
2023-04-18T05:40:04.685Z,7.20
2023-04-18T05:41:07.729Z,7.41
2023-04-18T05:42:10.438Z,6.65
2023-04-18T05:43:13.279Z,7.64
2023-04-18T05:44:16.356Z,8.45
2023-04-18T05:45:19.031Z,7.30
2023-04-18T05:46:22.156Z,7.94
2023-04-18T05:47:26.173Z,8.98
2023-04-18T05:48:29.298Z,11.00
2023-04-18T05:49:31.855Z,10.27
2023-04-18T05:50:34.729Z,7.11
2023-04-18T05:51:37.398Z,7.77
2023-04-18T05:52:40.171Z,8.45
2023-04-18T05:53:43.041Z,7.02
2023-04-18T05:54:46.031Z,7.97
2023-04-18T05:55:48.997Z,7.25
2023-04-18T05:56:51.707Z,9.13
2023-04-18T05:57:54.544Z,8.44
2023-04-18T05:58:57.528Z,5.88
2023-04-18T06:00:00.406Z,7.97
2023-04-18T06:01:03.269Z,8.85
2023-04-18T06:02:05.951Z,8.93
2023-04-18T06:03:10.803Z,10.85
2023-04-18T06:04:13.615Z,9.12
2023-04-18T06:05:20.429Z,8.43
2023-04-18T06:06:23.378Z,10.74
2023-04-18T06:07:26.154Z,8.79
2023-04-18T06:08:28.741Z,9.82
2023-04-18T06:09:31.395Z,10.23
2023-04-18T06:10:33.958Z,10.97
2023-04-18T06:11:36.847Z,10.22
2023-04-18T06:12:39.397Z,8.97
2023-04-18T06:13:42.069Z,10.33
2023-04-18T06:14:44.749Z,11.38
2023-04-18T06:15:47.833Z,11.90
2023-04-18T06:16:50.689Z,11.56
2023-04-18T06:17:53.815Z,11.02
2023-04-18T06:18:57.297Z,9.85
2023-04-18T06:20:01.072Z,11.65
2023-04-18T06:21:04.034Z,14.70
2023-04-18T06:22:06.710Z,12.15
2023-04-18T06:23:09.645Z,12.08
2023-04-18T06:24:12.556Z,10.34
2023-04-18T06:25:15.545Z,9.86
2023-04-18T06:26:18.310Z,10.71
2023-04-18T06:27:30.579Z,9.52
2023-04-18T06:28:25.502Z,10.29
2023-04-18T06:29:40.816Z,12.97
2023-04-18T06:30:44.180Z,11.60
2023-04-18T06:31:47.146Z,9.97
2023-04-18T06:32:49.936Z,7.62
2023-04-18T06:33:52.558Z,10.66
2023-04-18T06:34:55.439Z,11.66
2023-04-18T06:35:58.310Z,9.52
2023-04-18T06:37:00.985Z,10.49
2023-04-18T06:38:03.751Z,9.70
2023-04-18T06:39:07.236Z,10.38
2023-04-18T06:40:10.012Z,10.48
2023-04-18T06:42:29.185Z,13.25
2023-04-18T06:43:31.942Z,14.22
2023-04-18T06:44:34.620Z,15.61
2023-04-18T06:45:37.220Z,11.28
2023-04-18T06:46:40.060Z,11.18
2023-04-18T06:47:42.921Z,10.28
2023-04-18T06:48:45.502Z,11.05
2023-04-18T06:49:48.814Z,12.77
2023-04-18T06:50:51.938Z,15.72
2023-04-18T06:51:54.644Z,13.18
2023-04-18T06:52:58.823Z,10.55
2023-04-18T06:54:01.720Z,13.44
2023-04-18T06:55:05.324Z,12.78
2023-04-18T06:56:08.294Z,14.84
2023-04-18T06:57:11.125Z,12.88
2023-04-18T06:58:14.035Z,16.12
2023-04-18T06:59:16.914Z,12.26
2023-04-18T07:00:19.893Z,12.92
2023-04-18T07:01:22.505Z,12.74
2023-04-18T07:02:25.220Z,14.86
2023-04-18T07:03:28.318Z,15.61
2023-04-18T07:04:31.039Z,15.89
2023-04-18T07:05:33.770Z,12.16
2023-04-18T07:06:36.419Z,11.03
2023-04-18T07:07:39.083Z,10.64
2023-04-18T07:08:41.758Z,14.74
2023-04-18T07:09:44.439Z,10.32
2023-04-18T07:10:47.312Z,12.24
2023-04-18T07:11:49.867Z,11.16
2023-04-18T07:12:52.536Z,11.04
2023-04-18T07:13:55.106Z,13.42
2023-04-18T07:14:57.976Z,13.14
2023-04-18T07:16:01.092Z,12.90
2023-04-18T07:17:05.540Z,12.70
2023-04-18T07:18:08.531Z,12.28
2023-04-18T07:19:11.215Z,12.21
2023-04-18T07:20:14.455Z,14.97
2023-04-18T07:21:17.375Z,11.59
2023-04-18T07:22:19.950Z,17.43
2023-04-18T07:23:22.616Z,15.38
2023-04-18T07:24:25.492Z,12.85
2023-04-18T07:25:28.059Z,13.73
2023-04-18T07:26:31.340Z,18.25
2023-04-18T07:27:33.911Z,12.43
2023-04-18T07:28:36.679Z,14.79
2023-04-18T07:29:39.580Z,12.74
2023-04-18T07:30:42.560Z,13.46
2023-04-18T07:31:45.715Z,13.91
2023-04-18T07:32:48.347Z,11.07
2023-04-18T07:33:51.256Z,12.53
2023-04-18T07:34:53.927Z,14.42
2023-04-18T07:35:56.803Z,13.27
2023-04-18T07:36:59.579Z,13.62
2023-04-18T07:38:02.254Z,13.84
2023-04-18T07:39:04.825Z,11.02
2023-04-18T07:40:07.498Z,14.02
2023-04-18T07:41:10.672Z,13.22
2023-04-18T07:42:13.765Z,14.06
2023-04-18T07:43:16.515Z,14.27
2023-04-18T07:44:19.594Z,12.27
2023-04-18T07:45:22.592Z,14.15
2023-04-18T07:46:25.684Z,14.23
2023-04-18T07:47:30.371Z,14.10
2023-04-18T07:48:33.148Z,14.27
2023-04-18T07:49:35.914Z,13.51
2023-04-18T07:50:38.693Z,15.42
2023-04-18T07:51:41.259Z,13.68
2023-04-18T07:52:44.438Z,14.94
2023-04-18T07:53:47.109Z,16.02
2023-04-18T07:54:49.671Z,13.37
2023-04-18T07:55:52.344Z,12.47
2023-04-18T07:56:55.143Z,13.98
2023-04-18T07:57:57.890Z,13.46
2023-04-18T07:59:00.362Z,14.38
2023-04-18T08:00:02.922Z,13.29
2023-04-18T08:01:05.800Z,14.58
2023-04-18T08:02:08.487Z,16.55
2023-04-18T08:03:11.379Z,16.86
2023-04-18T08:04:14.426Z,15.32
2023-04-18T08:05:17.141Z,15.67
2023-04-18T08:06:19.873Z,15.28
2023-04-18T08:07:22.427Z,17.42
2023-04-18T08:08:25.105Z,15.95
2023-04-18T08:09:27.986Z,16.39
2023-04-18T08:10:30.544Z,19.65
2023-04-18T08:11:33.221Z,16.55
2023-04-18T08:12:36.701Z,13.38
2023-04-18T08:13:39.394Z,16.46
2023-04-18T08:14:42.046Z,13.44
2023-04-18T08:15:44.844Z,16.33
2023-04-18T08:16:47.504Z,13.03
2023-04-18T08:17:50.393Z,14.47
2023-04-18T08:18:53.237Z,16.50
2023-04-18T08:19:56.210Z,16.84
2023-04-18T08:20:58.774Z,18.81
2023-04-18T08:22:01.470Z,16.16
2023-04-18T08:23:08.727Z,13.46
2023-04-18T08:24:08.540Z,12.93
2023-04-18T08:25:11.195Z,10.81
2023-04-18T08:26:13.765Z,18.24
2023-04-18T08:27:16.549Z,15.21
2023-04-18T08:28:19.313Z,14.15
2023-04-18T08:29:22.080Z,14.37
2023-04-18T08:30:24.953Z,15.77
2023-04-18T08:31:27.703Z,14.12
2023-04-18T08:32:30.340Z,14.99
2023-04-18T08:33:32.967Z,18.30
2023-04-18T08:34:35.740Z,19.18
2023-04-18T08:35:38.414Z,15.33
2023-04-18T08:36:41.082Z,15.63
2023-04-18T08:37:43.766Z,17.02
2023-04-18T08:38:46.835Z,18.23
2023-04-18T08:39:50.044Z,16.98
2023-04-18T08:40:52.781Z,12.88
2023-04-18T08:41:55.452Z,14.62
2023-04-18T08:42:58.018Z,14.37
2023-04-18T08:44:00.687Z,14.16
2023-04-18T08:45:04.075Z,18.09
2023-04-18T08:46:06.986Z,16.69
2023-04-18T08:47:09.634Z,18.28
2023-04-18T08:48:12.303Z,21.14
2023-04-18T08:49:15.196Z,14.90
2023-04-18T08:50:18.345Z,12.87
2023-04-18T08:51:20.918Z,14.43
2023-04-18T08:52:23.496Z,15.89
2023-04-18T08:53:26.257Z,15.83
2023-04-18T08:54:28.821Z,17.46
2023-04-18T08:55:31.696Z,20.64
2023-04-18T08:56:34.461Z,15.17
2023-04-18T08:57:37.035Z,17.77
2023-04-18T08:58:39.700Z,18.92
2023-04-18T08:59:43.789Z,16.11
2023-04-18T09:00:46.676Z,17.49
2023-04-18T09:01:49.756Z,17.08
2023-04-18T09:02:52.511Z,19.04
2023-04-18T09:03:55.559Z,19.31
2023-04-18T09:04:58.175Z,17.58
2023-04-18T09:06:01.295Z,17.95
2023-04-18T09:07:04.136Z,19.09
2023-04-18T09:08:07.003Z,23.76
2023-04-18T09:09:09.576Z,17.52
2023-04-18T09:10:12.240Z,16.56
2023-04-18T09:11:14.912Z,15.65
2023-04-18T09:12:17.584Z,15.92
2023-04-18T09:13:20.257Z,17.68
2023-04-18T09:14:23.125Z,16.75
2023-04-18T09:15:25.802Z,18.98
2023-04-18T09:16:28.533Z,18.05
2023-04-18T09:17:31.162Z,16.46
2023-04-18T09:18:33.909Z,16.42
2023-04-18T09:19:36.583Z,17.24
2023-04-18T09:20:39.356Z,18.97
2023-04-18T09:21:42.334Z,17.56
2023-04-18T09:22:45.012Z,17.80
2023-04-18T09:23:47.670Z,14.56
2023-04-18T09:24:50.359Z,13.54
2023-04-18T09:25:53.008Z,14.62
2023-04-18T09:26:56.192Z,16.00
2023-04-18T09:27:58.859Z,19.03
2023-04-18T09:29:01.738Z,20.30
2023-04-18T09:30:04.301Z,16.65
2023-04-18T09:31:06.976Z,15.37
2023-04-18T09:32:09.659Z,16.05
2023-04-18T09:33:12.309Z,15.12
2023-04-18T09:34:15.322Z,15.11
2023-04-18T09:35:18.370Z,17.22
2023-04-18T09:36:20.971Z,17.51
2023-04-18T09:37:23.708Z,18.62
2023-04-18T09:38:26.377Z,17.31
2023-04-18T09:39:29.049Z,16.87
2023-04-18T09:40:31.831Z,19.00
2023-04-18T09:41:34.492Z,19.82
2023-04-18T09:42:37.576Z,17.49
2023-04-18T09:43:40.446Z,18.14
2023-04-18T09:44:43.335Z,17.80
2023-04-18T09:45:45.904Z,15.82
2023-04-18T09:46:48.686Z,18.26
2023-04-18T09:47:51.408Z,18.57
2023-04-18T09:48:53.845Z,19.98
2023-04-18T09:49:56.468Z,14.91
2023-04-18T09:50:59.134Z,17.94
2023-04-18T09:52:01.839Z,18.93
2023-04-18T09:53:04.896Z,18.49
2023-04-18T09:54:07.461Z,21.32
2023-04-18T09:55:16.325Z,19.56
2023-04-18T09:56:18.938Z,18.82
2023-04-18T09:57:21.603Z,17.38
2023-04-18T09:58:24.580Z,18.67
2023-04-18T09:59:27.353Z,18.80
2023-04-18T10:00:30.123Z,17.82
2023-04-18T10:01:37.533Z,17.78
2023-04-18T10:02:40.454Z,16.88
2023-04-18T10:03:43.663Z,18.78
2023-04-18T10:04:46.492Z,14.75
2023-04-18T10:05:57.117Z,13.89
2023-04-18T10:06:59.149Z,16.76
2023-04-18T10:08:02.024Z,14.68
2023-04-18T10:09:04.714Z,17.52
2023-04-18T10:10:07.361Z,19.57
2023-04-18T10:11:10.031Z,17.95
2023-04-18T10:12:13.014Z,18.48
2023-04-18T10:13:15.994Z,17.80
2023-04-18T10:14:19.082Z,16.62
2023-04-18T10:15:21.936Z,14.88
2023-04-18T10:16:24.678Z,14.93
2023-04-18T10:17:29.262Z,15.04
2023-04-18T10:18:31.770Z,18.40
2023-04-18T10:19:34.870Z,14.42
2023-04-18T10:20:38.287Z,17.55
2023-04-18T10:21:41.230Z,17.04
2023-04-18T10:22:44.150Z,14.51
2023-04-18T10:23:47.084Z,19.85
2023-04-18T10:24:50.149Z,21.50
2023-04-18T10:25:53.045Z,19.43
2023-04-18T10:26:55.833Z,20.27
2023-04-18T10:27:58.592Z,18.76
2023-04-18T10:29:01.352Z,18.57
2023-04-18T10:30:04.556Z,16.32
2023-04-18T10:31:07.435Z,17.02
2023-04-18T10:32:10.296Z,17.82
2023-04-18T10:33:21.772Z,17.05
2023-04-18T10:34:17.267Z,20.82
2023-04-18T10:35:20.013Z,18.92
2023-04-18T10:36:22.616Z,18.11
2023-04-18T10:37:25.292Z,17.49
2023-04-18T10:38:27.849Z,18.35
2023-04-18T10:39:36.657Z,18.52
2023-04-18T10:40:39.336Z,17.21
2023-04-18T10:41:41.999Z,15.83
2023-04-18T10:42:44.675Z,20.48
2023-04-18T10:43:47.338Z,19.19
2023-04-18T10:44:50.014Z,17.33
2023-04-18T10:45:52.898Z,18.67
2023-04-18T10:46:55.460Z,17.09
2023-04-18T10:47:58.061Z,12.88
2023-04-18T10:49:02.216Z,20.42
2023-04-18T10:50:06.585Z,21.71
2023-04-18T10:51:08.998Z,18.99
2023-04-18T10:52:13.357Z,18.40
2023-04-18T10:53:15.876Z,17.34
2023-04-18T10:54:18.542Z,19.50
2023-04-18T10:55:21.213Z,22.43
2023-04-18T10:56:24.003Z,18.75
2023-04-18T10:57:26.866Z,19.75
2023-04-18T10:58:29.528Z,17.46
2023-04-18T10:59:33.225Z,19.27
2023-04-18T11:00:41.548Z,15.88
2023-04-18T11:01:44.195Z,17.37
2023-04-18T11:02:46.969Z,17.32
2023-04-18T11:03:49.571Z,16.31
2023-04-18T11:04:52.212Z,18.36
2023-04-18T11:05:54.875Z,18.68
2023-04-18T11:06:57.856Z,16.40
2023-04-18T11:08:00.628Z,15.65
2023-04-18T11:09:03.309Z,21.02
2023-04-18T11:10:05.858Z,18.16
2023-04-18T11:11:08.742Z,19.60
2023-04-18T11:12:11.714Z,16.51
2023-04-18T11:13:14.420Z,15.32
2023-04-18T11:14:17.186Z,17.85
2023-04-18T11:15:20.038Z,21.82
2023-04-18T11:16:22.656Z,22.51
2023-04-18T11:17:25.942Z,18.34
2023-04-18T11:18:28.563Z,17.54
2023-04-18T11:19:31.125Z,18.41
2023-04-18T11:20:33.997Z,17.31
2023-04-18T11:21:36.583Z,21.15
2023-04-18T11:22:39.538Z,20.42
2023-04-18T11:23:42.120Z,14.23
2023-04-18T11:24:44.781Z,16.63
2023-04-18T11:25:47.452Z,17.62
2023-04-18T11:26:50.223Z,19.58
2023-04-18T11:27:53.113Z,19.22
2023-04-18T11:28:55.766Z,18.55
2023-04-18T11:29:58.330Z,20.04
2023-04-18T11:31:01.212Z,18.12
2023-04-18T11:32:06.784Z,21.02
2023-04-18T11:33:09.517Z,18.61
2023-04-18T11:34:12.369Z,21.08
2023-04-18T11:35:15.172Z,19.38
2023-04-18T11:36:17.739Z,21.42
2023-04-18T11:37:22.220Z,22.96
2023-04-18T11:38:25.221Z,20.74
2023-04-18T11:39:27.930Z,20.43
2023-04-18T11:40:36.088Z,18.32
2023-04-18T11:41:38.755Z,21.44
2023-04-18T11:42:41.640Z,18.78
2023-04-18T11:43:44.729Z,18.32
2023-04-18T11:44:48.011Z,20.71
2023-04-18T11:45:50.595Z,21.65
2023-04-18T11:46:53.238Z,21.11
2023-04-18T11:47:55.931Z,19.44
2023-04-18T11:48:58.883Z,15.50
2023-04-18T11:50:01.770Z,17.37
2023-04-18T11:51:04.422Z,18.61
2023-04-18T11:52:07.006Z,17.51
2023-04-18T11:53:09.657Z,16.05
2023-04-18T11:54:12.413Z,15.87
2023-04-18T11:55:15.214Z,19.67
2023-04-18T11:56:17.876Z,20.76
2023-04-18T11:57:20.435Z,16.78
2023-04-18T11:58:23.117Z,17.75
2023-04-18T11:59:25.776Z,20.12
2023-04-18T12:00:28.938Z,17.10
2023-04-18T12:01:31.538Z,15.57
2023-04-18T12:02:34.656Z,19.88
2023-04-18T12:03:37.597Z,20.46
2023-04-18T12:04:42.460Z,14.25
2023-04-18T12:05:45.526Z,15.66
2023-04-18T12:06:48.079Z,16.68
2023-04-18T12:07:51.747Z,15.22
2023-04-18T12:08:54.636Z,16.62
2023-04-18T12:09:57.601Z,19.15
2023-04-18T12:11:00.281Z,18.33
2023-04-18T12:12:03.100Z,16.06
2023-04-18T12:13:05.709Z,16.92
2023-04-18T12:14:08.378Z,14.98
2023-04-18T12:15:11.158Z,16.19
2023-04-18T12:16:13.797Z,14.93
2023-04-18T12:17:16.697Z,16.84
2023-04-18T12:18:19.476Z,18.22
2023-04-18T12:19:22.346Z,17.83
2023-04-18T12:20:25.138Z,15.42
2023-04-18T12:21:27.786Z,15.97
2023-04-18T12:22:30.454Z,15.38
2023-04-18T12:23:33.132Z,18.65
2023-04-18T12:25:51.674Z,19.93
2023-04-18T12:26:54.346Z,19.32
2023-04-18T12:27:57.021Z,14.53
2023-04-18T12:28:59.696Z,14.79
2023-04-18T12:30:02.390Z,16.89
2023-04-18T12:31:05.049Z,14.72
2023-04-18T12:32:07.593Z,16.30
2023-04-18T12:33:10.265Z,19.51
2023-04-18T12:34:13.151Z,17.25
2023-04-18T12:35:15.909Z,17.88
2023-04-18T12:36:18.474Z,18.18
2023-04-18T12:37:21.063Z,16.65
2023-04-18T12:38:23.811Z,18.45
2023-04-18T12:39:26.493Z,17.75
2023-04-18T12:40:29.313Z,18.80
2023-04-18T12:41:31.934Z,17.53
2023-04-18T12:42:34.623Z,12.80
2023-04-18T12:43:37.370Z,18.18
2023-04-18T12:44:39.935Z,14.79
2023-04-18T12:45:42.709Z,17.81
2023-04-18T12:46:45.707Z,14.12
2023-04-18T12:47:48.426Z,19.58
2023-04-18T12:48:51.029Z,17.61
2023-04-18T12:49:53.716Z,17.36
2023-04-18T12:50:56.598Z,13.22
2023-04-18T12:51:59.146Z,15.04
2023-04-18T12:53:01.811Z,20.97
2023-04-18T12:54:06.292Z,16.86
2023-04-18T12:55:09.105Z,18.03
2023-04-18T12:56:11.758Z,18.59
2023-04-18T12:57:14.734Z,20.30
2023-04-18T12:58:17.609Z,20.87
2023-04-18T12:59:20.288Z,17.32
2023-04-18T13:00:22.950Z,17.37
2023-04-18T13:01:25.682Z,15.65
2023-04-18T13:02:28.683Z,16.35
2023-04-18T13:03:31.542Z,17.32
2023-04-18T13:04:34.495Z,17.78
2023-04-18T13:05:37.539Z,18.24
2023-04-18T13:06:40.205Z,18.19
2023-04-18T13:07:43.081Z,19.65
2023-04-18T13:08:45.640Z,18.38
2023-04-18T13:09:48.312Z,15.68
2023-04-18T13:10:51.085Z,17.75
2023-04-18T13:11:53.865Z,15.46
2023-04-18T13:12:56.427Z,19.27
2023-04-18T13:13:59.098Z,21.90
2023-04-18T13:15:01.767Z,15.70
2023-04-18T13:16:04.593Z,14.64
2023-04-18T13:17:07.369Z,19.15
2023-04-18T13:18:10.094Z,17.62
2023-04-18T13:19:13.117Z,18.64
2023-04-18T13:20:15.834Z,18.72
2023-04-18T13:21:19.520Z,16.15
2023-04-18T13:22:22.357Z,15.49
2023-04-18T13:23:25.273Z,20.92
2023-04-18T13:24:30.569Z,21.37
2023-04-18T13:25:33.178Z,16.34
2023-04-18T13:26:35.844Z,23.90
2023-04-18T13:27:40.877Z,19.62
2023-04-18T13:28:42.721Z,17.53
2023-04-18T13:29:45.395Z,19.50
2023-04-18T13:30:47.957Z,21.42
2023-04-18T13:31:50.755Z,16.53
2023-04-18T13:32:53.414Z,16.13
2023-04-18T13:33:55.989Z,15.53
2023-04-18T13:34:58.636Z,15.85
2023-04-18T13:36:01.315Z,20.02
2023-04-18T13:37:03.976Z,17.38
2023-04-18T13:38:06.661Z,23.87
2023-04-18T13:39:09.523Z,67.84
2023-04-18T13:40:12.196Z,156.48
2023-04-18T13:41:14.763Z,137.85
2023-04-18T13:42:17.429Z,54.62
2023-04-18T13:43:19.996Z,55.15
2023-04-18T13:44:22.673Z,60.03
2023-04-18T13:45:25.242Z,44.15
2023-04-18T13:46:28.140Z,62.35
2023-04-18T13:47:30.981Z,75.93
2023-04-18T13:48:33.673Z,67.23
2023-04-18T13:49:36.942Z,67.94
2023-04-18T13:50:39.513Z,92.25
2023-04-18T13:51:42.069Z,73.51
2023-04-18T13:52:44.744Z,47.33
2023-04-18T13:53:47.410Z,39.07
2023-04-18T13:54:50.181Z,18.62
2023-04-18T13:55:52.751Z,28.99
2023-04-18T13:56:55.424Z,21.87
2023-04-18T13:57:57.987Z,22.77
2023-04-18T13:59:00.669Z,17.02
2023-04-18T14:00:03.437Z,18.62
2023-04-18T14:01:06.068Z,16.12
2023-04-18T14:02:08.871Z,19.30
2023-04-18T14:03:11.870Z,18.45
2023-04-18T14:04:14.701Z,22.81
2023-04-18T14:05:17.807Z,17.54
2023-04-18T14:06:20.678Z,16.39
2023-04-18T14:07:23.352Z,17.63
2023-04-18T14:08:26.016Z,15.90
2023-04-18T14:09:28.684Z,13.49
2023-04-18T14:10:31.567Z,17.30
2023-04-18T14:11:34.229Z,15.52
2023-04-18T14:12:37.010Z,17.90
2023-04-18T14:13:39.571Z,17.86
2023-04-18T14:14:42.446Z,14.86
2023-04-18T14:15:45.084Z,16.30
2023-04-18T14:16:47.684Z,15.87
2023-04-18T14:17:50.262Z,19.51
2023-04-18T14:18:52.920Z,17.32
2023-04-18T14:19:55.800Z,14.80
2023-04-18T14:20:58.781Z,15.15
2023-04-18T14:22:01.456Z,14.29
2023-04-18T14:23:04.325Z,17.63
2023-04-18T14:24:07.102Z,18.60
2023-04-18T14:25:09.758Z,15.62
2023-04-18T14:26:12.733Z,15.72
2023-04-18T14:27:15.308Z,13.17
2023-04-18T14:28:17.979Z,15.88
2023-04-18T14:29:20.558Z,14.50
2023-04-18T14:30:23.424Z,14.93
2023-04-18T14:31:26.112Z,15.75
2023-04-18T14:32:28.690Z,15.23
2023-04-18T14:33:31.544Z,17.45
2023-04-18T14:34:35.899Z,16.66